X  Close Metar Aviation Weather Data        KGAI Gaithersburg
Temperature
58°F Temperature
21°F Dewpoint
24% Humidity



Wind
7 MPH
11 KM/H
3 M/S
6 KTS



240°
WSW
Current Conditions

Sunny Sunny
Pressure 1013 (hPa) - 29.92 (inHg)
Visibility 10 (mile) - 16 (km)
Airport
Airport-code KGAI

Location: Gaithersburg
Distance: 11 (mi)

Metar:
METAR KGAI 032056Z AUTO 24006KT 10SM CLR 14/M06 A2988 RMK AO2 SLP133 T01441061 56022

Time: 03-03-2021 3:56 pm EST